Time;durP1;ratioP1;P1;durP2;ratioP2;P2;SDS_P1;SDS_P2;PMS_P1;PMS_P2;Temp;Humidity;BMP_temperature;BMP_pressure;BME280_temperature;BME280_humidity;BME280_pressure;Samples;Min_cycle;Max_cycle;Signal;HPM_P1;HPM_P2
2022/07/02 00:00:53;;;;;;;5.00;1.73;;;15.50;99.90;;;;;;5078296;28;20059;-68
2022/07/02 00:03:33;;;;;;;7.07;1.90;;;15.50;99.90;;;;;;5096543;28;20052;-68
2022/07/02 00:06:01;;;;;;;6.90;1.90;;;15.50;99.90;;;;;;5078258;28;20052;-68
2022/07/02 00:08:28;;;;;;;4.57;1.50;;;15.40;99.90;;;;;;5096264;28;20047;-69
2022/07/02 00:10:55;;;;;;;4.60;1.97;;;15.40;99.90;;;;;;5095989;28;20043;-69
2022/07/02 00:13:22;;;;;;;6.10;1.90;;;;;;;;;;5096126;28;20131;-69
2022/07/02 00:15:48;;;;;;;4.83;1.87;;;15.40;99.90;;;;;;5095718;28;20294;-68
2022/07/02 00:18:15;;;;;;;7.03;1.80;;;15.40;99.90;;;;;;5096118;28;20059;-68
2022/07/02 00:20:42;;;;;;;7.20;2.13;;;15.40;99.90;;;;;;5078023;28;20122;-68
2022/07/02 00:23:08;;;;;;;7.63;1.73;;;15.40;99.90;;;;;;5095719;28;20308;-68
2022/07/02 00:25:42;;;;;;;8.07;1.90;;;15.40;99.90;;;;;;5095959;28;20762;-68
2022/07/02 00:28:11;;;;;;;8.23;1.97;;;15.40;99.90;;;;;;5095607;28;20282;-68
2022/07/02 00:30:42;;;;;;;4.87;1.80;;;;;;;;;;5095495;28;20488;-69
2022/07/02 00:33:11;;;;;;;7.17;2.60;;;15.30;99.90;;;;;;5095638;28;20591;-68
2022/07/02 00:35:38;;;;;;;7.33;1.87;;;15.30;99.90;;;;;;5095344;28;20806;-68
2022/07/02 00:38:04;;;;;;;7.93;2.17;;;15.30;99.90;;;;;;5095374;28;20273;-68
2022/07/02 00:40:31;;;;;;;5.53;1.90;;;15.20;99.90;;;;;;5095990;28;20289;-68
2022/07/02 00:42:58;;;;;;;5.50;2.03;;;15.20;99.90;;;;;;5095284;28;20373;-69
2022/07/02 00:45:26;;;;;;;11.43;2.53;;;15.20;99.90;;;;;;5095776;28;20278;-68
2022/07/02 00:47:56;;;;;;;9.00;2.47;;;15.20;99.90;;;;;;5095234;28;20278;-68
2022/07/02 00:50:22;;;;;;;6.93;2.33;;;15.10;99.90;;;;;;5094388;28;20379;-68
2022/07/02 00:52:48;;;;;;;7.80;1.90;;;15.10;99.90;;;;;;5095517;28;20282;-68
2022/07/02 00:55:14;;;;;;;9.87;2.30;;;15.10;99.90;;;;;;5077147;28;20378;-68
2022/07/02 00:57:40;;;;;;;5.60;2.00;;;15.00;99.90;;;;;;5095378;28;20357;-68
2022/07/02 01:00:09;;;;;;;9.60;2.20;;;15.00;99.90;;;;;;5095063;28;20476;-69
2022/07/02 01:02:37;;;;;;;7.80;2.20;;;15.00;99.90;;;;;;5095289;28;20377;-68
2022/07/02 01:05:03;;;;;;;5.93;1.73;;;15.00;99.90;;;;;;5094576;28;20762;-69
2022/07/02 01:07:30;;;;;;;6.53;2.10;;;15.00;99.90;;;;;;5095177;28;20314;-68
2022/07/02 01:10:19;;;;;;;8.73;2.27;;;15.00;99.90;;;;;;5094925;28;20340;-69
2022/07/02 01:12:46;;;;;;;6.10;2.20;;;15.00;99.90;;;;;;5095094;28;20309;-68
2022/07/02 01:15:13;;;;;;;7.20;2.30;;;15.00;99.90;;;;;;5094622;28;20298;-68
2022/07/02 01:17:38;;;;;;;7.13;2.30;;;15.00;99.90;;;;;;5095020;28;20306;-68
2022/07/02 01:20:04;;;;;;;8.00;2.33;;;15.00;99.90;;;;;;5094612;28;20749;-69
2022/07/02 01:22:35;;;;;;;9.73;2.50;;;14.90;99.90;;;;;;5095085;28;20044;-69
2022/07/02 01:25:01;;;;;;;8.73;2.77;;;14.90;99.90;;;;;;5094609;28;20325;-69
2022/07/02 01:27:27;;;;;;;7.73;2.50;;;14.90;99.90;;;;;;5095065;28;20282;-68
2022/07/02 01:29:53;;;;;;;9.17;3.00;;;14.90;99.90;;;;;;5094716;28;20278;-68
2022/07/02 01:32:19;;;;;;;7.20;2.87;;;14.80;99.90;;;;;;5094620;28;20044;-68
2022/07/02 01:34:47;;;;;;;6.63;2.43;;;14.90;99.90;;;;;;5094583;28;20051;-68
2022/07/02 01:37:15;;;;;;;6.63;2.33;;;14.80;99.90;;;;;;5076469;28;20758;-68
2022/07/02 01:39:43;;;;;;;8.60;3.00;;;14.90;99.90;;;;;;5094574;28;20282;-68
2022/07/02 01:42:10;;;;;;;7.37;2.60;;;14.90;99.90;;;;;;5094246;28;20278;-69
2022/07/02 01:44:37;;;;;;;11.03;2.97;;;14.80;99.90;;;;;;5094179;28;20642;-68
2022/07/02 01:47:05;;;;;;;8.37;3.10;;;14.80;99.90;;;;;;5094104;28;20286;-69
2022/07/02 01:49:31;;;;;;;7.13;3.20;;;14.80;99.90;;;;;;5094154;28;20290;-68
2022/07/02 01:51:57;;;;;;;9.70;3.57;;;14.70;99.90;;;;;;5094000;28;20318;-72
2022/07/02 01:54:23;;;;;;;9.37;3.43;;;14.70;99.90;;;;;;5094297;28;20351;-68
2022/07/02 01:56:48;;;;;;;9.47;3.27;;;14.70;99.90;;;;;;5094304;28;20165;-68
2022/07/02 01:59:14;;;;;;;11.13;4.20;;;14.70;99.90;;;;;;5076045;28;20563;-68
2022/07/02 02:01:41;;;;;;;7.10;3.13;;;14.70;99.90;;;;;;5093838;28;20059;-68
2022/07/02 02:04:07;;;;;;;10.17;3.33;;;14.70;99.90;;;;;;5093712;28;20047;-69
2022/07/02 02:06:33;;;;;;;11.53;3.80;;;14.60;99.90;;;;;;5094252;28;20266;-68
2022/07/02 02:08:59;;;;;;;8.20;3.40;;;14.60;99.90;;;;;;5093642;28;20094;-72
2022/07/02 02:11:24;;;;;;;8.73;3.40;;;14.60;99.90;;;;;;5093975;28;20342;-68
2022/07/02 02:13:50;;;;;;;10.37;3.33;;;14.60;99.90;;;;;;5093612;28;20044;-68
2022/07/02 02:16:16;;;;;;;8.70;3.30;;;14.50;99.90;;;;;;5093505;28;20040;-68
2022/07/02 02:18:42;;;;;;;9.23;3.13;;;14.50;99.90;;;;;;5093492;28;20051;-68
2022/07/02 02:21:08;;;;;;;7.17;3.63;;;14.50;99.90;;;;;;5075405;28;20044;-68
2022/07/02 02:23:34;;;;;;;11.10;3.30;;;14.50;99.90;;;;;;5093737;28;20503;-68
2022/07/02 02:25:59;;;;;;;8.37;3.23;;;14.50;99.90;;;;;;5093862;28;20315;-68
2022/07/02 02:28:25;;;;;;;8.13;3.93;;;14.50;99.90;;;;;;5075534;28;20044;-68
2022/07/02 02:30:51;;;;;;;7.30;3.90;;;14.50;99.90;;;;;;5075947;28;20089;-68
2022/07/02 02:33:17;;;;;;;9.00;4.40;;;14.50;99.90;;;;;;5093233;28;20373;-69
2022/07/02 02:35:43;;;;;;;8.67;3.83;;;14.40;99.90;;;;;;5093762;28;20047;-68
2022/07/02 02:38:08;;;;;;;9.07;4.17;;;14.40;99.90;;;;;;5075221;28;20404;-69
2022/07/02 02:40:34;;;;;;;12.73;4.50;;;14.40;99.90;;;;;;5093433;28;20484;-68
2022/07/02 02:43:00;;;;;;;8.83;3.70;;;14.40;99.90;;;;;;5093391;28;20177;-68
2022/07/02 02:45:25;;;;;;;8.53;4.00;;;14.40;99.90;;;;;;5093091;28;20048;-69
2022/07/02 02:47:51;;;;;;;9.03;4.30;;;14.40;99.90;;;;;;5093778;28;20056;-68
2022/07/02 02:50:17;;;;;;;10.70;4.43;;;14.40;99.90;;;;;;5074635;28;20048;-68
2022/07/02 02:52:43;;;;;;;9.27;4.97;;;14.30;99.90;;;;;;5093601;28;20098;-69
2022/07/02 02:55:08;;;;;;;10.23;5.23;;;14.30;99.90;;;;;;5092935;28;20040;-69
2022/07/02 02:57:34;;;;;;;12.20;5.53;;;14.30;99.90;;;;;;5075410;28;20110;-69
2022/07/02 03:00:00;;;;;;;11.37;6.17;;;14.30;99.90;;;;;;5093149;28;20036;-69
2022/07/02 03:02:25;;;;;;;12.30;6.10;;;14.30;99.90;;;;;;5092904;28;20054;-69
2022/07/02 03:04:51;;;;;;;11.77;5.87;;;14.30;99.90;;;;;;5093191;28;20124;-69
2022/07/02 03:07:17;;;;;;;14.13;5.63;;;14.20;99.90;;;;;;5092835;28;20051;-69
2022/07/02 03:09:42;;;;;;;11.30;4.90;;;14.30;99.90;;;;;;5075294;28;20507;-69
2022/07/02 03:12:09;;;;;;;10.87;5.20;;;14.30;99.90;;;;;;5074930;28;20097;-69
2022/07/02 03:14:35;;;;;;;12.23;5.77;;;14.30;99.90;;;;;;5092712;28;20380;-69
2022/07/02 03:17:00;;;;;;;13.53;5.50;;;14.20;99.90;;;;;;5092961;28;20332;-69
2022/07/02 03:19:26;;;;;;;10.60;5.43;;;14.30;99.90;;;;;;5092762;28;20048;-69
2022/07/02 03:21:52;;;;;;;11.93;5.03;;;14.30;99.90;;;;;;5075369;28;20054;-69
2022/07/02 03:24:17;;;;;;;12.90;5.63;;;14.30;99.90;;;;;;5092768;28;20419;-69
2022/07/02 03:26:43;;;;;;;12.77;5.67;;;14.30;99.90;;;;;;5075162;28;20048;-69
2022/07/02 03:29:09;;;;;;;11.57;4.97;;;14.20;99.90;;;;;;5092704;28;20078;-69
2022/07/02 03:31:35;;;;;;;13.50;5.90;;;14.20;99.90;;;;;;5092852;28;20185;-69
2022/07/02 03:34:00;;;;;;;12.23;5.33;;;14.20;99.90;;;;;;5092990;28;20044;-69
2022/07/02 03:36:26;;;;;;;11.13;4.70;;;14.20;99.90;;;;;;5092335;28;20101;-69
2022/07/02 03:38:52;;;;;;;11.43;5.50;;;14.30;99.90;;;;;;5092823;28;20102;-69
2022/07/02 03:41:17;;;;;;;12.33;5.23;;;14.30;99.90;;;;;;5092459;28;20047;-69
2022/07/02 03:43:43;;;;;;;9.03;5.07;;;14.20;99.90;;;;;;5092749;28;20052;-69
2022/07/02 03:46:09;;;;;;;9.37;4.20;;;14.30;99.90;;;;;;5092666;28;20048;-72
2022/07/02 03:48:34;;;;;;;13.87;5.43;;;14.20;99.90;;;;;;5092630;28;20044;-69
2022/07/02 03:51:00;;;;;;;12.87;4.97;;;14.30;99.90;;;;;;5092668;28;20090;-69
2022/07/02 03:53:26;;;;;;;7.80;4.00;;;14.20;99.90;;;;;;5092399;28;20044;-69
2022/07/02 03:55:51;;;;;;;9.23;4.40;;;14.30;99.90;;;;;;5074647;28;20050;-69
2022/07/02 03:58:17;;;;;;;11.23;3.80;;;14.30;99.90;;;;;;5092332;28;20078;-69
2022/07/02 04:00:43;;;;;;;9.57;4.17;;;14.30;99.90;;;;;;5092724;28;20075;-69
2022/07/02 04:03:08;;;;;;;8.43;4.00;;;14.30;99.90;;;;;;5075005;28;20051;-69
2022/07/02 04:05:34;;;;;;;9.80;4.30;;;14.30;99.90;;;;;;5092297;28;20094;-69
2022/07/02 04:08:00;;;;;;;10.50;3.50;;;14.40;99.90;;;;;;5058404;28;20464;-69
2022/07/02 04:10:26;;;;;;;12.23;4.57;;;14.40;99.90;;;;;;5092324;28;20048;-69
2022/07/02 04:12:51;;;;;;;12.53;3.97;;;14.40;99.90;;;;;;5092478;28;20032;-69
2022/07/02 04:15:17;;;;;;;11.63;3.77;;;14.40;99.90;;;;;;5092247;28;20075;-69
2022/07/02 04:17:43;;;;;;;12.00;3.50;;;14.50;99.90;;;;;;5092463;28;20052;-69
2022/07/02 04:20:09;;;;;;;11.63;4.23;;;14.50;99.90;;;;;;5074411;28;20048;-69
2022/07/02 04:22:35;;;;;;;13.00;4.47;;;14.60;99.90;;;;;;5092178;28;20055;-69
2022/07/02 04:25:00;;;;;;;10.37;3.47;;;14.60;99.90;;;;;;5094147;28;20282;-69
2022/07/02 04:27:26;;;;;;;13.03;4.00;;;14.60;99.90;;;;;;5095664;28;20044;-69
2022/07/02 04:29:52;;;;;;;10.00;3.93;;;14.70;99.90;;;;;;5095915;28;20130;-69
2022/07/02 04:32:17;;;;;;;12.97;3.77;;;14.70;99.90;;;;;;5077669;28;20044;-69
2022/07/02 04:34:43;;;;;;;9.87;3.97;;;14.70;99.90;;;;;;5095835;28;20497;-69
2022/07/02 04:37:09;;;;;;;10.07;4.33;;;14.80;99.90;;;;;;5095663;28;20051;-69
2022/07/02 04:39:34;;;;;;;9.43;4.83;;;14.80;99.90;;;;;;5095425;28;20087;-69
2022/07/02 04:42:00;;;;;;;10.87;4.20;;;14.90;99.90;;;;;;5095693;28;20040;-69
2022/07/02 04:44:26;;;;;;;12.37;4.20;;;15.00;99.90;;;;;;5095353;28;20131;-69
2022/07/02 04:46:52;;;;;;;14.30;4.90;;;15.10;99.90;;;;;;5095587;28;20070;-69
2022/07/02 04:49:18;;;;;;;11.87;4.30;;;15.10;99.90;;;;;;5095351;28;20400;-69
2022/07/02 04:51:43;;;;;;;10.10;4.20;;;15.20;99.90;;;;;;5095605;28;20344;-69
2022/07/02 04:54:09;;;;;;;10.50;4.00;;;15.40;99.90;;;;;;5095503;28;20392;-69
2022/07/02 04:56:35;;;;;;;8.20;3.67;;;15.50;99.90;;;;;;5095029;28;20040;-69
2022/07/02 04:59:01;;;;;;;9.10;4.00;;;15.60;99.90;;;;;;5095082;28;20048;-69
2022/07/02 05:01:28;;;;;;;10.57;4.57;;;15.70;99.90;;;;;;5077068;28;20055;-69
2022/07/02 05:03:54;;;;;;;9.13;4.13;;;15.80;99.90;;;;;;5095254;28;20048;-69
2022/07/02 05:06:21;;;;;;;7.27;4.20;;;15.90;99.90;;;;;;5094959;28;20293;-70
2022/07/02 05:08:48;;;;;;;8.20;4.00;;;16.00;99.90;;;;;;5077245;28;20055;-69
2022/07/02 05:11:15;;;;;;;10.27;4.37;;;16.10;99.90;;;;;;5094743;28;20781;-69
2022/07/02 05:13:45;;;;;;;11.30;4.80;;;16.20;99.90;;;;;;5095328;28;20271;-69
2022/07/02 05:16:11;;;;;;;10.23;4.90;;;16.40;99.90;;;;;;5094995;28;20779;-69
2022/07/02 05:18:36;;;;;;;9.90;5.10;;;16.40;99.90;;;;;;5076894;28;20090;-69
2022/07/02 05:21:02;;;;;;;13.20;5.20;;;16.50;99.90;;;;;;5094940;28;20040;-69
2022/07/02 05:23:28;;;;;;;8.87;5.03;;;16.60;99.90;;;;;;5094665;28;20048;-69
2022/07/02 05:25:54;;;;;;;10.57;5.53;;;16.70;99.90;;;;;;5094479;28;20040;-69
2022/07/02 05:28:19;;;;;;;9.17;5.17;;;16.80;99.90;;;;;;5094927;28;20118;-69
2022/07/02 05:30:45;;;;;;;10.83;4.93;;;16.90;99.90;;;;;;5094492;28;20503;-69
2022/07/02 05:33:11;;;;;;;8.87;5.00;;;17.00;99.90;;;;;;5094793;28;20054;-69
2022/07/02 05:35:36;;;;;;;12.30;5.47;;;17.10;99.90;;;;;;5093641;28;20478;-69
2022/07/02 05:38:02;;;;;;;7.73;5.03;;;17.20;99.90;;;;;;5094563;28;20050;-69
2022/07/02 05:40:28;;;;;;;10.30;5.03;;;17.30;99.90;;;;;;5094288;28;20109;-69
2022/07/02 05:42:53;;;;;;;11.43;5.07;;;17.40;99.90;;;;;;5076184;28;20048;-67
2022/07/02 05:45:19;;;;;;;11.77;5.30;;;17.60;99.90;;;;;;5094491;28;20044;-67
2022/07/02 05:47:45;;;;;;;8.57;5.00;;;17.80;99.90;;;;;;5076278;28;20039;-67
2022/07/02 05:50:11;;;;;;;9.40;5.43;;;18.00;99.90;;;;;;5094266;28;20066;-67
2022/07/02 05:52:37;;;;;;;11.60;5.30;;;18.80;99.90;;;;;;5076283;28;20118;-67
2022/07/02 05:55:04;;;;;;;9.87;4.50;;;19.00;99.90;;;;;;5094287;28;20071;-67
2022/07/02 05:57:30;;;;;;;8.93;5.20;;;21.10;99.90;;;;;;5075912;28;20482;-68
2022/07/02 05:59:56;;;;;;;9.03;3.97;;;21.50;99.90;;;;;;5094262;28;20051;-68
2022/07/02 06:02:23;;;;;;;9.67;4.53;;;22.60;99.90;;;;;;5094300;28;20044;-68
2022/07/02 06:04:49;;;;;;;10.90;4.00;;;24.20;88.70;;;;;;5093858;28;20126;-68
2022/07/02 06:09:58;;;;;;;6.60;3.73;;;25.10;98.30;;;;;;5094178;28;20106;-68
2022/07/02 06:12:24;;;;;;;9.67;3.63;;;26.10;94.60;;;;;;5093892;28;20765;-68
2022/07/02 06:14:50;;;;;;;10.80;3.17;;;26.80;90.00;;;;;;5093658;28;20051;-68
2022/07/02 06:17:16;;;;;;;8.17;3.43;;;;;;;;;;5093929;28;20047;-69
2022/07/02 06:19:45;;;;;;;6.93;2.90;;;;;;;;;;5093581;28;20047;-70
2022/07/02 06:22:11;;;;;;;7.10;3.00;;;27.90;58.60;;;;;;5093763;28;20055;-69
2022/07/02 06:24:37;;;;;;;11.23;3.20;;;;;;;;;;5093445;28;20051;-69
2022/07/02 06:27:03;;;;;;;9.23;3.10;;;28.70;88.20;;;;;;5093982;28;20044;-69
2022/07/02 06:29:28;;;;;;;6.43;2.63;;;28.90;56.10;;;;;;5093400;28;20388;-77
2022/07/02 06:31:54;;;;;;;7.45;2.60;;;29.30;52.50;;;;;;5093569;28;20488;-68
2022/07/02 06:34:20;;;;;;;7.53;2.92;;;;;;;;;;5093715;28;20040;-68
2022/07/02 06:36:46;;;;;;;7.78;3.13;;;;;;;;;;5093138;28;20091;-68
2022/07/02 06:39:12;;;;;;;10.13;3.13;;;;;;;;;;5093446;28;20040;-68
2022/07/02 06:44:23;;;;;;;8.23;2.78;;;;;;;;;;5093647;28;20105;-69
2022/07/02 06:46:49;;;;;;;6.15;3.30;;;;;;;;;;5075113;28;20044;-69
2022/07/02 06:49:15;;;;;;;7.82;3.15;;;31.00;45.40;;;;;;5092347;28;20048;-68
2022/07/02 06:51:41;;;;;;;7.93;3.03;;;;;;;;;;5093305;28;20052;-69
2022/07/02 06:54:07;;;;;;;7.05;2.85;;;31.60;82.90;;;;;;5093285;28;20055;-68
2022/07/02 06:56:35;;;;;;;6.78;2.90;;;;;;;;;;5093011;28;20040;-69
2022/07/02 06:59:03;;;;;;;6.68;2.38;;;31.90;41.70;;;;;;5093547;28;20047;-68
2022/07/02 07:01:28;;;;;;;7.32;2.80;;;31.80;43.70;;;;;;5093173;28;20484;-68
2022/07/02 07:03:54;;;;;;;6.43;2.75;;;31.80;44.20;;;;;;5092866;28;20094;-68
2022/07/02 07:06:23;;;;;;;7.80;3.22;;;31.70;44.00;;;;;;5093123;28;20098;-68
2022/07/02 07:08:52;;;;;;;6.22;2.47;;;31.70;43.90;;;;;;5092881;28;20104;-68
2022/07/02 07:11:20;;;;;;;7.45;2.85;;;31.70;43.20;;;;;;5075338;28;20051;-68
2022/07/02 07:13:46;;;;;;;8.40;2.30;;;32.00;43.10;;;;;;5092769;28;20052;-68
2022/07/02 07:16:12;;;;;;;6.70;2.42;;;32.10;42.40;;;;;;5093143;28;20388;-68
2022/07/02 07:18:37;;;;;;;10.60;2.47;;;31.90;42.40;;;;;;5092722;28;20044;-68
2022/07/02 07:21:03;;;;;;;4.95;2.05;;;32.10;42.60;;;;;;5092998;28;20047;-68
2022/07/02 07:23:29;;;;;;;7.38;2.38;;;31.50;42.40;;;;;;5092900;28;20056;-68
2022/07/02 07:25:54;;;;;;;8.02;2.50;;;31.00;43.10;;;;;;5092668;28;20048;-68
2022/07/02 07:28:22;;;;;;;11.95;2.65;;;30.60;43.70;;;;;;5074985;28;20127;-68
2022/07/02 07:30:47;;;;;;;7.10;2.33;;;30.80;44.10;;;;;;5092682;28;20131;-68
2022/07/02 07:33:13;;;;;;;7.72;2.58;;;31.10;43.60;;;;;;5092845;28;20087;-68
2022/07/02 07:35:39;;;;;;;6.40;2.30;;;31.50;43.50;;;;;;5074609;28;20044;-69
2022/07/02 07:38:05;;;;;;;4.97;1.88;;;32.10;42.70;;;;;;5093063;28;20093;-68
2022/07/02 07:40:30;;;;;;;7.35;2.47;;;32.30;42.20;;;;;;5092733;28;20132;-68
2022/07/02 07:42:56;;;;;;;7.72;2.17;;;32.60;41.00;;;;;;5092497;28;20088;-68
2022/07/02 07:45:22;;;;;;;5.38;2.10;;;32.80;40.70;;;;;;5092894;28;20487;-68
2022/07/02 07:47:47;;;;;;;5.38;2.25;;;33.00;39.90;;;;;;5092490;28;20070;-68
2022/07/02 07:50:13;;;;;;;4.93;2.05;;;;;;;;;;5092804;28;20117;-68
2022/07/02 07:52:39;;;;;;;6.57;2.47;;;;;;;;;;5092582;28;20101;-69
2022/07/02 07:55:06;;;;;;;5.00;2.05;;;;;;;;;;5074526;28;20397;-68
2022/07/02 07:57:32;;;;;;;6.25;2.22;;;;;;;;;;5092628;28;20432;-68
2022/07/02 07:59:57;;;;;;;5.25;2.08;;;32.20;39.30;;;;;;5094201;28;20467;-68
2022/07/02 08:02:23;;;;;;;7.13;2.25;;;32.10;39.40;;;;;;5096541;28;20496;-68
2022/07/02 08:04:49;;;;;;;5.82;2.10;;;31.50;40.60;;;;;;5096114;28;20388;-68
2022/07/02 08:07:14;;;;;;;6.32;2.10;;;31.50;41.20;;;;;;5061604;28;20452;-68
2022/07/02 08:09:40;;;;;;;6.03;1.95;;;31.50;41.30;;;;;;5096024;28;20047;-70
2022/07/02 08:12:06;;;;;;;8.52;1.90;;;31.90;41.10;;;;;;5096288;28;20051;-68
2022/07/02 08:14:32;;;;;;;7.85;2.60;;;32.30;41.10;;;;;;5096221;28;20051;-68
2022/07/02 08:16:58;;;;;;;8.02;2.33;;;;;;;;;;5095773;28;20500;-68
2022/07/02 08:19:23;;;;;;;12.35;2.25;;;33.60;76.70;;;;;;5077897;28;20248;-68
2022/07/02 08:21:49;;;;;;;7.95;2.25;;;;;;;;;;5077684;28;20069;-69
2022/07/02 08:24:15;;;;;;;6.22;2.00;;;34.20;37.40;;;;;;5095622;28;20040;-69
2022/07/02 08:26:41;;;;;;;5.55;2.00;;;;;;;;;;5096293;28;20044;-69
2022/07/02 08:29:09;;;;;;;5.88;2.33;;;;;;;;;;5095914;28;20054;-69
2022/07/02 08:31:35;;;;;;;4.88;2.10;;;;;;;;;;5095861;28;20052;-69
2022/07/02 08:34:01;;;;;;;7.40;2.72;;;;;;;;;;5095537;28;20104;-69
2022/07/02 08:36:27;;;;;;;6.03;2.17;;;;;;;;;;5077435;28;20399;-68
2022/07/02 08:38:53;;;;;;;5.28;2.03;;;;;;;;;;5095458;28;20431;-69
2022/07/02 08:41:19;;;;;;;8.27;2.15;;;;;;;;;;5078008;28;20044;-69
2022/07/02 08:43:49;;;;;;;4.38;1.65;;;;;;;;;;5077308;28;20090;-71
2022/07/02 08:46:15;;;;;;;5.32;1.80;;;;;;;;;;5095663;28;20050;-69
2022/07/02 08:48:42;;;;;;;4.45;1.63;;;;;;;;;;5095582;28;20101;-69
2022/07/02 08:51:10;;;;;;;5.85;2.00;;;;;;;;;;5095149;28;20085;-69
2022/07/02 08:53:36;;;;;;;4.43;1.77;;;33.00;69.90;;;;;;5077701;28;20534;-69
2022/07/02 08:56:02;;;;;;;5.10;2.00;;;32.90;40.70;;;;;;5095267;28;20107;-69
2022/07/02 08:58:29;;;;;;;6.82;1.80;;;;;;;;;;5095791;28;20071;-69
2022/07/02 09:00:57;;;;;;;5.95;1.70;;;31.50;75.20;;;;;;5077537;28;20463;-69
2022/07/02 09:03:23;;;;;;;3.72;1.40;;;;;;;;;;5077407;28;20086;-69
2022/07/02 09:05:52;;;;;;;4.25;1.70;;;;;;;;;;5095167;28;20082;-69
2022/07/02 09:08:22;;;;;;;4.07;1.65;;;;;;;;;;5077683;28;20051;-69
2022/07/02 09:10:50;;;;;;;4.80;1.38;;;29.10;38.60;;;;;;5093956;28;20052;-69
2022/07/02 09:13:17;;;;;;;3.53;1.50;;;29.10;39.00;;;;;;5095029;28;20044;-68
2022/07/02 09:15:45;;;;;;;3.92;1.40;;;28.70;39.40;;;;;;5076951;28;20044;-68
2022/07/02 09:18:11;;;;;;;4.43;1.60;;;28.30;39.60;;;;;;5076691;28;20100;-68
2022/07/02 09:20:37;;;;;;;3.40;1.30;;;28.00;39.20;;;;;;5094891;28;20048;-68
2022/07/02 09:23:09;;;;;;;3.15;1.20;;;;;;;;;;5094553;28;20476;-66
2022/07/02 09:25:34;;;;;;;3.60;1.20;;;27.40;40.20;;;;;;5094990;28;20052;-68
2022/07/02 09:28:03;;;;;;;3.22;1.15;;;;;;;;;;5094534;28;20196;-67
2022/07/02 09:30:31;;;;;;;3.85;1.10;;;27.10;41.20;;;;;;5094906;28;20048;-67
2022/07/02 09:35:41;;;;;;;4.20;1.38;;;26.70;41.60;;;;;;5094707;28;20044;-71
2022/07/02 09:38:09;;;;;;;3.28;1.40;;;26.60;41.80;;;;;;5094260;28;20135;-67
2022/07/02 09:40:35;;;;;;;2.33;1.10;;;;;;;;;;5092994;28;20040;-69
2022/07/02 09:43:02;;;;;;;2.30;1.00;;;26.30;41.70;;;;;;5093012;28;20048;-68
2022/07/02 09:45:28;;;;;;;3.65;1.20;;;26.30;42.40;;;;;;5094079;28;20044;-68
2022/07/02 09:47:53;;;;;;;3.70;1.20;;;26.30;42.80;;;;;;5094187;28;20101;-68
2022/07/02 09:50:21;;;;;;;4.80;1.48;;;;;;;;;;5094289;28;20052;-68
2022/07/02 09:52:51;;;;;;;3.85;1.05;;;26.40;41.70;;;;;;5094610;28;20446;-67
2022/07/02 09:55:29;;;;;;;3.75;1.10;;;26.20;42.50;;;;;;5094233;28;20055;-67
2022/07/02 09:57:57;;;;;;;3.90;1.30;;;26.10;42.80;;;;;;5094108;28;20052;-68
2022/07/02 10:00:24;;;;;;;3.10;1.57;;;25.90;42.30;;;;;;5094480;28;20442;-67
2022/07/02 10:02:54;;;;;;;2.10;1.00;;;25.90;42.70;;;;;;5094298;28;20036;-67
2022/07/02 10:05:33;;;;;;;2.50;1.10;;;25.90;43.10;;;;;;5094276;28;20044;-67
2022/07/02 10:08:06;;;;;;;3.37;0.90;;;25.90;42.60;;;;;;5094000;28;20040;-67
2022/07/02 10:10:38;;;;;;;3.75;0.98;;;;;;;;;;5094120;28;20052;-67
2022/07/02 10:13:05;;;;;;;3.17;1.00;;;26.00;41.80;;;;;;5093885;28;20060;-67
2022/07/02 10:15:33;;;;;;;2.70;1.30;;;26.00;42.80;;;;;;5093918;28;20123;-67
2022/07/02 10:18:03;;;;;;;2.00;0.90;;;26.00;42.20;;;;;;5075838;28;20044;-67
2022/07/02 10:20:33;;;;;;;4.23;1.20;;;26.00;42.40;;;;;;5094041;28;20136;-67
2022/07/02 10:23:02;;;;;;;4.23;1.03;;;25.90;42.80;;;;;;5075330;28;20040;-68
2022/07/02 10:25:28;;;;;;;4.57;1.50;;;25.90;43.10;;;;;;5093916;28;20040;-67
2022/07/02 10:27:56;;;;;;;2.73;1.00;;;25.90;42.90;;;;;;5093704;28;20085;-67
2022/07/02 10:30:31;;;;;;;3.67;0.90;;;25.80;42.80;;;;;;5093670;28;20377;-67
2022/07/02 10:33:13;;;;;;;2.23;1.00;;;25.80;43.10;;;;;;5075700;28;20101;-68
2022/07/02 10:35:40;;;;;;;2.67;1.10;;;25.80;42.90;;;;;;5093801;28;20036;-67
2022/07/02 10:38:06;;;;;;;4.80;1.10;;;25.80;43.00;;;;;;5093563;28;20083;-67
2022/07/02 10:40:32;;;;;;;5.40;1.20;;;25.70;42.90;;;;;;5093596;28;20079;-67
2022/07/02 10:42:59;;;;;;;3.33;1.00;;;25.60;42.80;;;;;;5093418;28;20047;-68
2022/07/02 10:45:26;;;;;;;3.70;1.20;;;25.50;42.40;;;;;;5093841;28;20091;-67
2022/07/02 10:48:02;;;;;;;4.03;1.10;;;25.40;43.40;;;;;;5075568;28;20044;-67
2022/07/02 10:50:37;;;;;;;3.90;1.10;;;25.30;43.50;;;;;;5093536;28;20056;-67
2022/07/02 10:53:14;;;;;;;4.40;1.10;;;25.30;44.10;;;;;;5093175;28;20432;-67
2022/07/02 10:55:42;;;;;;;5.33;1.20;;;25.30;44.00;;;;;;5093292;28;20499;-67
2022/07/02 10:58:17;;;;;;;2.63;1.07;;;25.20;43.80;;;;;;5074978;28;20456;-67
2022/07/02 11:00:43;;;;;;;4.77;1.30;;;25.10;44.10;;;;;;5093174;28;20449;-67
2022/07/02 11:03:19;;;;;;;4.87;1.13;;;25.00;44.50;;;;;;5075114;28;20052;-70
2022/07/02 11:06:02;;;;;;;4.90;1.40;;;25.00;44.80;;;;;;5075005;28;20040;-69
2022/07/02 11:08:49;;;;;;;4.13;1.20;;;25.00;44.70;;;;;;5093368;28;20047;-67
2022/07/02 11:11:22;;;;;;;3.10;1.07;;;24.80;44.00;;;;;;5092872;28;20052;-67
2022/07/02 11:13:59;;;;;;;3.40;1.23;;;24.70;43.80;;;;;;5093065;28;20091;-67
2022/07/02 11:16:40;;;;;;;5.47;1.40;;;24.60;43.40;;;;;;5092689;28;20300;-68
2022/07/02 11:19:20;;;;;;;3.87;1.27;;;24.50;44.10;;;;;;5092780;28;20062;-68
2022/07/02 11:21:48;;;;;;;3.13;1.63;;;24.50;44.10;;;;;;5074798;28;20044;-68
2022/07/02 11:24:21;;;;;;;2.63;1.00;;;24.50;44.40;;;;;;5092621;28;20238;-68
2022/07/02 11:26:47;;;;;;;5.55;1.58;;;24.50;45.00;;;;;;5092880;28;20105;-68
2022/07/02 11:29:14;;;;;;;4.80;1.00;;;24.50;45.20;;;;;;5092620;28;20438;-68
2022/07/02 11:31:46;;;;;;;3.37;1.13;;;24.60;45.50;;;;;;5092810;28;20048;-68
2022/07/02 11:34:19;;;;;;;3.47;1.10;;;24.60;45.20;;;;;;5075132;28;20048;-68
2022/07/02 11:36:44;;;;;;;4.23;0.97;;;24.50;45.30;;;;;;5096857;28;20048;-67
2022/07/02 11:39:12;;;;;;;3.77;1.17;;;24.50;45.00;;;;;;5096614;28;20055;-68
2022/07/02 11:41:39;;;;;;;2.50;1.00;;;24.40;44.70;;;;;;5096808;28;20059;-67
2022/07/02 11:44:15;;;;;;;1.57;0.90;;;24.50;45.10;;;;;;5062084;28;20149;-75
2022/07/02 11:46:43;;;;;;;4.23;1.27;;;24.50;45.10;;;;;;5096733;28;20195;-67
2022/07/02 11:49:17;;;;;;;2.43;1.00;;;24.50;45.20;;;;;;5096476;28;20101;-67
2022/07/02 11:51:47;;;;;;;3.25;1.05;;;24.50;45.30;;;;;;5096338;28;20056;-68
2022/07/02 11:54:14;;;;;;;4.27;1.23;;;24.50;45.40;;;;;;5096387;28;20044;-70
2022/07/02 11:56:41;;;;;;;2.77;1.00;;;24.40;45.00;;;;;;5096494;28;20540;-67
2022/07/02 11:59:12;;;;;;;2.30;1.10;;;24.50;45.60;;;;;;5078217;28;20388;-70
2022/07/02 12:01:43;;;;;;;2.27;1.10;;;24.50;45.60;;;;;;5096486;28;20044;-67
2022/07/02 12:04:15;;;;;;;3.83;1.00;;;24.60;45.80;;;;;;5096389;28;20071;-68
2022/07/02 12:06:49;;;;;;;4.80;1.17;;;24.60;45.40;;;;;;5096475;28;20052;-67
2022/07/02 12:09:17;;;;;;;3.50;0.90;;;24.50;43.80;;;;;;5096191;28;20047;-67
2022/07/02 12:11:47;;;;;;;2.60;1.03;;;24.40;44.00;;;;;;5096615;28;20438;-67
2022/07/02 12:14:14;;;;;;;3.40;1.00;;;24.40;44.20;;;;;;5095912;28;20040;-67
2022/07/02 12:16:44;;;;;;;3.07;1.10;;;24.40;43.60;;;;;;5096259;28;20392;-67
2022/07/02 12:19:15;;;;;;;3.03;0.90;;;24.40;44.10;;;;;;5095903;28;20044;-68
2022/07/02 12:21:43;;;;;;;2.17;0.90;;;24.50;44.30;;;;;;5096198;28;20091;-67
2022/07/02 12:24:32;;;;;;;3.57;1.10;;;24.50;44.20;;;;;;5095945;28;20110;-72
2022/07/02 12:27:04;;;;;;;4.63;1.10;;;24.50;44.60;;;;;;5078415;28;20094;-67
2022/07/02 12:29:53;;;;;;;3.53;1.17;;;24.40;44.60;;;;;;5095843;28;20052;-67
2022/07/02 12:32:28;;;;;;;3.17;1.27;;;24.40;44.20;;;;;;5095749;28;20079;-67
2022/07/02 12:34:57;;;;;;;2.60;1.10;;;24.30;44.60;;;;;;5096114;28;20056;-67
2022/07/02 12:37:40;;;;;;;2.13;1.10;;;24.30;45.20;;;;;;5095455;28;20050;-67
2022/07/02 12:40:09;;;;;;;2.70;1.23;;;24.30;46.10;;;;;;5095804;28;20063;-68
2022/07/02 12:42:59;;;;;;;3.20;1.07;;;24.40;45.90;;;;;;5077598;28;20052;-69
2022/07/02 12:45:33;;;;;;;3.70;1.20;;;24.50;46.20;;;;;;5095375;28;20530;-65
2022/07/02 12:48:05;;;;;;;2.00;1.07;;;24.60;46.30;;;;;;5077895;28;20444;-68
2022/07/02 12:50:38;;;;;;;3.37;1.00;;;24.60;46.60;;;;;;5077088;28;20373;-68
2022/07/02 12:53:08;;;;;;;2.50;1.00;;;24.60;46.00;;;;;;5077775;28;20056;-67
2022/07/02 12:55:37;;;;;;;3.23;1.10;;;24.50;46.60;;;;;;5095172;28;20044;-67
2022/07/02 12:58:22;;;;;;;3.07;0.90;;;24.50;46.80;;;;;;5095432;28;20051;-67
2022/07/02 13:00:48;;;;;;;5.07;1.00;;;24.50;47.60;;;;;;5095636;28;20396;-67
2022/07/02 13:03:16;;;;;;;3.80;1.10;;;24.50;47.90;;;;;;5095050;28;20125;-71
2022/07/02 13:05:44;;;;;;;1.83;0.90;;;24.50;48.00;;;;;;5095482;28;20404;-67
2022/07/02 13:08:10;;;;;;;1.97;0.90;;;24.60;48.20;;;;;;5095183;28;20040;-67